Time;durP1;ratioP1;P1;durP2;ratioP2;P2;SDS_P1;SDS_P2;PMS_P1;PMS_P2;Temp;Humidity;BMP_temperature;BMP_pressure;BME280_temperature;BME280_humidity;BME280_pressure;Samples;Min_cycle;Max_cycle;Signal;HPM_P1;HPM_P2
2022/05/20 00:01:41;;;;;;;;;;;25.80;43.10;;;;;;1539952;77;809;-62
2022/05/20 00:03:44;;;;;;;;;;;25.70;43.10;;;;;;1536628;77;746;-61
2022/05/20 00:05:48;;;;;;;;;;;25.80;43.10;;;;;;1541670;76;1915;-61
2022/05/20 00:07:50;;;;;;;;;;;25.80;43.10;;;;;;1537200;76;705;-60
2022/05/20 00:09:52;;;;;;;;;;;25.80;43.10;;;;;;1538023;76;1169;-59
2022/05/20 00:11:54;;;;;;;;;;;25.90;43.10;;;;;;1533501;77;1560;-60
2022/05/20 00:13:56;;;;;;;;;;;25.80;43.10;;;;;;1529993;77;692;-62
2022/05/20 00:15:59;;;;;;;;;;;25.80;43.10;;;;;;1540607;77;856;-60
2022/05/20 00:18:01;;;;;;;;;;;25.70;43.10;;;;;;1538029;77;772;-59
2022/05/20 00:20:07;;;;;;;;;;;25.80;43.10;;;;;;1539453;76;1133;-60
2022/05/20 00:22:08;;;;;;;;;;;25.80;43.20;;;;;;1541027;77;835;-62
2022/05/20 00:24:10;;;;;;;;;;;25.70;43.20;;;;;;1533241;77;762;-60
2022/05/20 00:26:12;;;;;;;;;;;25.70;43.20;;;;;;1522927;77;1940;-59
2022/05/20 00:28:16;;;;;;;;;;;25.90;43.30;;;;;;1529266;77;763;-61
2022/05/20 00:30:18;;;;;;;;;;;25.80;43.30;;;;;;1530643;76;1148;-60
2022/05/20 00:32:19;;;;;;;;;;;25.80;43.30;;;;;;1535269;77;766;-60
2022/05/20 00:34:22;;;;;;;;;;;25.80;43.40;;;;;;1530468;77;724;-60
2022/05/20 00:36:23;;;;;;;;;;;25.80;43.30;;;;;;1540172;76;681;-60
2022/05/20 00:38:26;;;;;;;;;;;25.80;43.40;;;;;;1537991;77;1571;-62
2022/05/20 00:40:28;;;;;;;;;;;25.80;43.30;;;;;;1529751;76;1172;-60
2022/05/20 00:42:30;;;;;;;;;;;25.80;43.30;;;;;;1529817;76;737;-61
2022/05/20 00:44:32;;;;;;;;;;;25.80;43.40;;;;;;1535845;76;1948;-60
2022/05/20 00:46:34;;;;;;;;;;;25.80;43.30;;;;;;1533631;77;611;-60
2022/05/20 00:48:36;;;;;;;;;;;25.70;43.30;;;;;;1529609;77;732;-59
2022/05/20 00:50:39;;;;;;;;;;;25.80;43.30;;;;;;1550707;76;1287;-57
2022/05/20 00:52:42;;;;;;;;;;;25.80;43.30;;;;;;1539647;77;1530;-62
2022/05/20 00:54:46;;;;;;;;;;;25.80;43.30;;;;;;1531866;76;642;-60
2022/05/20 00:56:55;;;;;;;;;;;25.70;43.30;;;;;;1529265;77;865;-58
2022/05/20 00:58:57;;;;;;;;;;;25.80;43.30;;;;;;1533603;77;803;-60
2022/05/20 01:00:59;;;;;;;;;;;25.80;43.30;;;;;;1526507;77;1198;-62
2022/05/20 01:03:02;;;;;;;;;;;25.70;43.30;;;;;;1508351;78;815;-62
2022/05/20 01:05:04;;;;;;;;;;;25.70;43.30;;;;;;1545142;76;1921;-59
2022/05/20 01:07:06;;;;;;;;;;;25.70;43.30;;;;;;1536137;76;1564;-59
2022/05/20 01:09:08;;;;;;;;;;;25.80;43.30;;;;;;1538683;77;769;-60
2022/05/20 01:11:10;;;;;;;;;;;25.80;43.40;;;;;;1533776;76;1113;-58
2022/05/20 01:13:12;;;;;;;;;;;25.70;43.40;;;;;;1533007;77;775;-59
2022/05/20 01:15:14;;;;;;;;;;;25.70;43.40;;;;;;1531518;77;727;-60
2022/05/20 01:17:16;;;;;;;;;;;25.70;43.50;;;;;;1524233;77;794;-61
2022/05/20 01:19:19;;;;;;;;;;;25.80;43.40;;;;;;1536002;77;694;-59
2022/05/20 01:21:21;;;;;;;;;;;25.70;43.40;;;;;;1551674;76;1550;-58
2022/05/20 01:23:24;;;;;;;;;;;25.70;43.40;;;;;;1530079;77;567;-61
2022/05/20 01:25:26;;;;;;;;;;;25.70;43.40;;;;;;1532184;77;1938;-59
2022/05/20 01:27:28;;;;;;;;;;;25.70;43.40;;;;;;1533407;76;792;-60
2022/05/20 01:29:29;;;;;;;;;;;25.70;43.30;;;;;;1534354;77;710;-59
2022/05/20 01:31:31;;;;;;;;;;;25.70;43.40;;;;;;1533366;76;1109;-58
2022/05/20 01:33:37;;;;;;;;;;;25.70;43.40;;;;;;1532813;77;716;-60
2022/05/20 01:35:43;;;;;;;;;;;25.80;43.40;;;;;;1531928;76;1534;-62
2022/05/20 01:37:45;;;;;;;;;;;25.70;43.40;;;;;;1533301;77;751;-60
2022/05/20 01:39:47;;;;;;;;;;;25.70;43.40;;;;;;1534778;76;1137;-60
2022/05/20 01:41:53;;;;;;;;;;;25.70;43.40;;;;;;1535705;77;761;-59
2022/05/20 01:44:14;;;;;;;;;;;25.70;43.40;;;;;;1539090;76;755;-61
2022/05/20 01:46:33;;;;;;;;;;;25.70;43.40;;;;;;1533754;77;1952;-60
2022/05/20 01:48:39;;;;;;;;;;;25.70;43.40;;;;;;1538173;77;849;-59
2022/05/20 01:50:43;;;;;;;;;;;25.70;43.30;;;;;;1517543;76;1681;-59
2022/05/20 01:52:52;;;;;;;;;;;25.70;43.40;;;;;;1527797;77;727;-59
2022/05/20 01:54:58;;;;;;;;;;;25.70;43.40;;;;;;1529902;77;767;-60
2022/05/20 01:57:14;;;;;;;;;;;25.70;43.40;;;;;;1537379;77;769;-61
2022/05/20 01:59:27;;;;;;;;;;;25.70;43.40;;;;;;1536828;76;2069;-60
2022/05/20 02:01:31;;;;;;;;;;;25.70;43.50;;;;;;1536045;76;1082;-60
2022/05/20 02:03:44;;;;;;;;;;;25.70;43.50;;;;;;1535351;77;1550;-59
2022/05/20 02:05:50;;;;;;;;;;;25.70;43.50;;;;;;1534648;76;1928;-59
2022/05/20 02:07:52;;;;;;;;;;;25.80;43.50;;;;;;1541068;76;723;-60
2022/05/20 02:09:58;;;;;;;;;;;25.70;43.60;;;;;;1530578;77;1140;-58
2022/05/20 02:12:00;;;;;;;;;;;25.70;43.50;;;;;;1525357;77;795;-59
2022/05/20 02:14:09;;;;;;;;;;;25.70;43.50;;;;;;1537967;77;742;-58
2022/05/20 02:16:18;;;;;;;;;;;25.70;43.50;;;;;;1536100;77;695;-59
2022/05/20 02:18:22;;;;;;;;;;;25.70;43.60;;;;;;1536041;77;1315;-61
2022/05/20 02:20:25;;;;;;;;;;;25.70;43.60;;;;;;1544399;76;1101;-60
2022/05/20 02:22:28;;;;;;;;;;;25.70;43.60;;;;;;1533584;77;2106;-59
2022/05/20 02:24:30;;;;;;;;;;;25.70;43.60;;;;;;1538335;72;224760;-67
2022/05/20 02:26:33;;;;;;;;;;;25.70;43.60;;;;;;1589535;73;1907;-65
2022/05/20 02:28:36;;;;;;;;;;;25.70;43.60;;;;;;1585895;75;731;-65
2022/05/20 02:30:38;;;;;;;;;;;25.70;43.60;;;;;;1580418;75;744;-65
2022/05/20 02:32:51;;;;;;;;;;;25.70;43.60;;;;;;1591159;75;1611;-65
2022/05/20 02:34:53;;;;;;;;;;;25.70;43.60;;;;;;1557483;75;1208;-66
2022/05/20 02:36:55;;;;;;;;;;;25.60;43.60;;;;;;1578977;75;747;-66
2022/05/20 02:38:56;;;;;;;;;;;25.70;43.60;;;;;;1583882;75;721;-66
2022/05/20 02:40:58;;;;;;;;;;;25.70;43.70;;;;;;1582385;75;694;-66
2022/05/20 02:43:00;;;;;;;;;;;25.70;43.70;;;;;;1579835;75;774;-66
2022/05/20 02:45:02;;;;;;;;;;;25.70;43.60;;;;;;1567774;75;1556;-66
2022/05/20 02:47:04;;;;;;;;;;;25.70;43.70;;;;;;1572407;75;1941;-70
2022/05/20 02:49:06;;;;;;;;;;;25.70;43.70;;;;;;1578641;75;712;-67
2022/05/20 02:51:09;;;;;;;;;;;25.70;43.60;;;;;;1572569;75;809;-66
2022/05/20 02:53:11;;;;;;;;;;;25.70;43.60;;;;;;1581668;75;843;-65
2022/05/20 02:55:13;;;;;;;;;;;25.70;43.60;;;;;;1572073;75;1188;-63
2022/05/20 02:57:16;;;;;;;;;;;25.70;43.60;;;;;;1576403;75;778;-66
2022/05/20 03:04:13;;;;;;;;;;;25.70;43.70;;;;;;1583137;73;1658;-67
2022/05/20 03:06:15;;;;;;;;;;;25.70;43.60;;;;;;1583000;74;1919;-65
2022/05/20 03:08:16;;;;;;;;;;;25.70;43.70;;;;;;1576977;75;777;-66
2022/05/20 03:10:18;;;;;;;;;;;25.70;43.80;;;;;;1584117;75;786;-66
2022/05/20 03:12:20;;;;;;;;;;;25.60;43.70;;;;;;1583305;75;724;-66
2022/05/20 03:14:22;;;;;;;;;;;25.70;43.70;;;;;;1579186;75;1529;-67
2022/05/20 03:16:24;;;;;;;;;;;25.70;43.70;;;;;;1569485;75;650;-66
2022/05/20 03:18:26;;;;;;;;;;;25.70;43.70;;;;;;1588359;73;553;-68
2022/05/20 03:20:28;;;;;;;;;;;25.70;43.70;;;;;;1584396;75;764;-68
2022/05/20 03:22:30;;;;;;;;;;;25.70;43.70;;;;;;1583216;75;717;-66
2022/05/20 03:24:32;;;;;;;;;;;25.70;43.80;;;;;;1548381;76;1179;-68
2022/05/20 03:26:34;;;;;;;;;;;25.70;43.70;;;;;;1582278;75;1937;-66
2022/05/20 03:28:36;;;;;;;;;;;25.70;43.60;;;;;;1582195;75;1293;-66
2022/05/20 03:30:38;;;;;;;;;;;25.70;43.60;;;;;;1582819;75;746;-67
2022/05/20 03:32:40;;;;;;;;;;;25.70;43.60;;;;;;1578610;75;737;-66
2022/05/20 03:34:43;;;;;;;;;;;25.70;43.60;;;;;;1581629;75;1114;-67
2022/05/20 03:36:45;;;;;;;;;;;25.70;43.60;;;;;;1579314;75;742;-67
2022/05/20 03:38:47;;;;;;;;;;;25.70;43.70;;;;;;1580186;75;713;-67
2022/05/20 03:40:49;;;;;;;;;;;25.70;43.70;;;;;;1572639;75;783;-66
2022/05/20 03:42:51;;;;;;;;;;;25.70;43.80;;;;;;1568744;75;1568;-65
2022/05/20 03:44:53;;;;;;;;;;;25.60;43.80;;;;;;1584419;75;1139;-66
2022/05/20 03:46:55;;;;;;;;;;;25.70;43.80;;;;;;1586273;73;1918;-66
2022/05/20 03:48:58;;;;;;;;;;;25.70;43.90;;;;;;1580617;75;752;-65
2022/05/20 03:51:10;;;;;;;;;;;25.70;43.80;;;;;;1585492;75;742;-66
2022/05/20 03:53:11;;;;;;;;;;;25.70;43.80;;;;;;1581835;75;767;-66
2022/05/20 03:55:13;;;;;;;;;;;25.70;43.80;;;;;;1580865;75;1144;-66
2022/05/20 03:57:15;;;;;;;;;;;25.70;43.80;;;;;;1584175;75;784;-66
2022/05/20 03:59:17;;;;;;;;;;;25.80;43.80;;;;;;1584321;75;781;-67
2022/05/20 04:03:40;;;;;;;;;;;25.70;43.90;;;;;;1577192;75;1678;-65
2022/05/20 04:05:42;;;;;;;;;;;25.70;43.80;;;;;;1572944;75;1933;-66
2022/05/20 04:07:44;;;;;;;;;;;25.70;43.80;;;;;;1572781;75;713;-68
2022/05/20 04:09:48;;;;;;;;;;;25.70;43.80;;;;;;1576057;75;1332;-67
2022/05/20 04:11:51;;;;;;;;;;;25.60;43.90;;;;;;1580135;75;900;-66
2022/05/20 04:13:53;;;;;;;;;;;25.70;43.80;;;;;;1577896;75;732;-66
2022/05/20 04:15:55;;;;;;;;;;;25.70;43.70;;;;;;1573002;75;1129;-66
2022/05/20 04:17:57;;;;;;;;;;;25.70;43.70;;;;;;1580213;75;600;-66
2022/05/20 04:19:58;;;;;;;;;;;25.70;43.70;;;;;;1576583;75;816;-66
2022/05/20 04:22:03;;;;;;;;;;;25.70;43.80;;;;;;1580953;75;753;-66
2022/05/20 04:24:05;;;;;;;;;;;25.70;43.70;;;;;;1580305;75;1503;-66
2022/05/20 04:26:07;;;;;;;;;;;25.70;43.70;;;;;;1586325;75;1957;-67
2022/05/20 04:28:09;;;;;;;;;;;25.70;43.80;;;;;;1567290;75;674;-66
2022/05/20 04:30:12;;;;;;;;;;;25.70;43.70;;;;;;1582751;73;780;-66
2022/05/20 04:32:14;;;;;;;;;;;25.70;43.70;;;;;;1578841;75;723;-65
2022/05/20 04:34:15;;;;;;;;;;;25.70;43.70;;;;;;1587330;75;1158;-66
2022/05/20 04:36:17;;;;;;;;;;;25.70;43.80;;;;;;1566976;75;827;-65
2022/05/20 04:38:19;;;;;;;;;;;25.70;43.90;;;;;;1579957;75;1542;-65
2022/05/20 04:40:22;;;;;;;;;;;25.80;43.80;;;;;;1586538;75;784;-66
2022/05/20 04:47:04;;;;;;;;;;;25.70;43.90;;;;;;1576523;75;1889;-66
2022/05/20 04:49:06;;;;;;;;;;;25.70;43.90;;;;;;1586447;75;736;-66
2022/05/20 04:51:08;;;;;;;;;;;25.70;43.90;;;;;;1580061;75;774;-66
2022/05/20 04:54:49;;;;;;;;;;;25.80;43.90;;;;;;1586525;75;1524;-64
2022/05/20 04:55:13;;;;;;;;;;;25.70;43.90;;;;;;1575602;75;1413;-65
2022/05/20 04:57:32;;;;;;;;;;;25.70;44.00;;;;;;1586584;75;704;-66
2022/05/20 04:59:35;;;;;;;;;;;25.70;44.00;;;;;;1574320;75;753;-67
2022/05/20 05:01:37;;;;;;;;;;;25.70;44.00;;;;;;1584466;75;746;-64
2022/05/20 05:03:39;;;;;;;;;;;25.60;44.10;;;;;;1584029;75;877;-65
2022/05/20 05:05:40;;;;;;;;;;;25.70;44.10;;;;;;1579908;74;1524;-64
2022/05/20 05:07:43;;;;;;;;;;;25.70;44.10;;;;;;1584039;75;1921;-65
2022/05/20 05:09:45;;;;;;;;;;;25.70;44.10;;;;;;1576640;75;738;-64
2022/05/20 05:11:47;;;;;;;;;;;25.80;44.10;;;;;;1579769;75;737;-64
2022/05/20 05:13:49;;;;;;;;;;;25.80;43.80;;;;;;1575884;75;733;-64
2022/05/20 05:15:50;;;;;;;;;;;25.80;43.90;;;;;;1559455;75;1120;-63
2022/05/20 05:18:21;;;;;;;;;;;25.70;43.90;;;;;;1581486;75;746;-64
2022/05/20 05:20:15;;;;;;;;;;;25.80;43.80;;;;;;1576954;75;1616;-65
2022/05/20 05:22:17;;;;;;;;;;;25.80;43.80;;;;;;1586048;75;705;-67
2022/05/20 05:24:19;;;;;;;;;;;25.80;43.90;;;;;;1586764;75;1121;-66
2022/05/20 05:26:22;;;;;;;;;;;25.90;43.90;;;;;;1569545;75;1935;-67
2022/05/20 05:28:23;;;;;;;;;;;25.80;43.90;;;;;;1573734;75;722;-65
2022/05/20 05:30:25;;;;;;;;;;;25.90;43.70;;;;;;1572825;75;757;-67
2022/05/20 05:32:27;;;;;;;;;;;25.90;43.80;;;;;;1582403;75;740;-67
2022/05/20 05:34:29;;;;;;;;;;;25.90;43.90;;;;;;1581154;75;1511;-67
2022/05/20 05:36:31;;;;;;;;;;;25.80;43.90;;;;;;1585842;75;951;-68
2022/05/20 05:38:33;;;;;;;;;;;25.80;43.90;;;;;;1584171;75;685;-67
2022/05/20 05:40:35;;;;;;;;;;;25.70;44.00;;;;;;1575427;75;741;-68
2022/05/20 05:42:37;;;;;;;;;;;25.70;44.00;;;;;;1576794;75;896;-68
2022/05/20 05:44:39;;;;;;;;;;;25.70;44.00;;;;;;1572632;75;1164;-68
2022/05/20 05:46:40;;;;;;;;;;;25.60;44.00;;;;;;1567284;75;1944;-67
2022/05/20 05:48:42;;;;;;;;;;;25.60;44.00;;;;;;1586004;75;1597;-69
2022/05/20 05:50:44;;;;;;;;;;;25.60;44.00;;;;;;1577762;75;738;-68
2022/05/20 05:52:46;;;;;;;;;;;25.60;44.00;;;;;;1573144;75;742;-67
2022/05/20 05:54:48;;;;;;;;;;;25.60;44.00;;;;;;1585094;74;1186;-67
2022/05/20 05:56:50;;;;;;;;;;;25.70;44.00;;;;;;1576091;75;731;-67
2022/05/20 05:58:52;;;;;;;;;;;25.70;44.00;;;;;;1585056;75;813;-67
2022/05/20 06:00:54;;;;;;;;;;;25.70;44.00;;;;;;1582419;75;745;-67
2022/05/20 06:02:56;;;;;;;;;;;25.80;43.90;;;;;;1577961;75;1526;-67
2022/05/20 06:04:58;;;;;;;;;;;25.90;43.90;;;;;;1584398;75;1143;-67
2022/05/20 06:07:00;;;;;;;;;;;26.00;44.20;;;;;;1586491;75;1933;-67
2022/05/20 06:09:02;;;;;;;;;;;26.00;44.00;;;;;;1572177;75;800;-68
2022/05/20 06:11:05;;;;;;;;;;;26.10;43.70;;;;;;1582359;75;752;-67
2022/05/20 06:13:08;;;;;;;;;;;26.20;43.50;;;;;;1584092;75;728;-67
2022/05/20 06:15:12;;;;;;;;;;;26.30;43.20;;;;;;1569809;75;1134;-66
2022/05/20 06:17:14;;;;;;;;;;;26.30;43.10;;;;;;1579907;75;1559;-66
2022/05/20 06:19:16;;;;;;;;;;;26.30;43.00;;;;;;1572511;75;782;-66
2022/05/20 06:21:18;;;;;;;;;;;26.40;43.00;;;;;;1577505;75;781;-67
2022/05/20 06:23:20;;;;;;;;;;;26.30;42.90;;;;;;1564275;75;709;-67
2022/05/20 06:25:21;;;;;;;;;;;26.40;42.80;;;;;;1573113;73;1138;-67
2022/05/20 06:27:23;;;;;;;;;;;26.40;42.80;;;;;;1582141;75;1937;-66
2022/05/20 06:29:25;;;;;;;;;;;26.30;42.80;;;;;;1562960;75;733;-67
2022/05/20 06:31:27;;;;;;;;;;;26.40;42.80;;;;;;1579017;75;1498;-67
2022/05/20 06:33:29;;;;;;;;;;;26.40;42.70;;;;;;1569817;75;760;-65
2022/05/20 06:40:11;;;;;;;;;;;26.50;42.50;;;;;;1579540;75;742;-66
2022/05/20 06:42:13;;;;;;;;;;;26.50;42.30;;;;;;1585416;75;638;-65
2022/05/20 06:44:15;;;;;;;;;;;26.60;42.30;;;;;;1580022;75;1526;-66
2022/05/20 06:46:18;;;;;;;;;;;26.60;42.20;;;;;;1586628;75;723;-67
2022/05/20 06:48:20;;;;;;;;;;;26.60;42.10;;;;;;1563953;75;1918;-67
2022/05/20 06:50:22;;;;;;;;;;;26.70;42.10;;;;;;1582662;75;707;-66
2022/05/20 06:52:24;;;;;;;;;;;26.70;42.00;;;;;;1578896;75;744;-67
2022/05/20 06:54:26;;;;;;;;;;;26.80;41.80;;;;;;1585446;74;1119;-65
2022/05/20 06:56:31;;;;;;;;;;;26.70;41.70;;;;;;1584128;74;738;-66
2022/05/20 06:58:32;;;;;;;;;;;26.80;41.70;;;;;;1579396;73;1509;-65
2022/05/20 07:00:34;;;;;;;;;;;26.80;41.60;;;;;;1583160;74;805;-65
2022/05/20 07:02:36;;;;;;;;;;;26.80;41.50;;;;;;1580639;74;749;-65
2022/05/20 07:04:38;;;;;;;;;;;26.90;41.50;;;;;;1579426;74;1181;-65
2022/05/20 07:06:40;;;;;;;;;;;26.90;41.40;;;;;;1583145;74;1933;-64
2022/05/20 07:08:45;;;;;;;;;;;26.90;41.30;;;;;;1571430;74;817;-65
2022/05/20 07:10:45;;;;;;;;;;;26.90;41.20;;;;;;1579729;74;1645;-64
2022/05/20 07:12:48;;;;;;;;;;;27.00;41.80;;;;;;1580105;74;1525;-63
2022/05/20 07:14:50;;;;;;;;;;;27.00;41.70;;;;;;1582669;74;1091;-65
2022/05/20 07:16:51;;;;;;;;;;;27.00;41.70;;;;;;1583071;74;745;-66
2022/05/20 07:18:53;;;;;;;;;;;27.10;41.70;;;;;;1565155;74;662;-67
2022/05/20 07:20:56;;;;;;;;;;;27.10;41.60;;;;;;1576837;74;735;-67
2022/05/20 07:22:57;;;;;;;;;;;27.10;41.50;;;;;;1590114;74;764;-66
2022/05/20 07:24:59;;;;;;;;;;;27.10;41.50;;;;;;1576705;74;1149;-67
2022/05/20 07:27:01;;;;;;;;;;;27.10;41.40;;;;;;1574779;73;1950;-67
2022/05/20 07:29:03;;;;;;;;;;;27.10;41.40;;;;;;1567159;74;692;-67
2022/05/20 07:31:06;;;;;;;;;;;27.20;41.30;;;;;;1582075;74;785;-67
2022/05/20 07:33:08;;;;;;;;;;;27.20;41.30;;;;;;1582101;74;819;-67
2022/05/20 07:35:10;;;;;;;;;;;27.20;41.20;;;;;;1572769;74;1152;-67
2022/05/20 07:37:12;;;;;;;;;;;27.20;41.20;;;;;;1576056;74;799;-66
2022/05/20 07:39:14;;;;;;;;;;;27.20;41.10;;;;;;1564966;74;813;-66
2022/05/20 07:41:17;;;;;;;;;;;27.20;41.10;;;;;;1574636;73;1372;-66
2022/05/20 07:43:20;;;;;;;;;;;27.20;41.10;;;;;;1583598;74;779;-66
2022/05/20 07:45:22;;;;;;;;;;;27.20;41.00;;;;;;1580036;74;1143;-66
2022/05/20 07:47:26;;;;;;;;;;;27.20;41.20;;;;;;1582892;74;1945;-66
2022/05/20 07:49:28;;;;;;;;;;;27.20;41.10;;;;;;1582721;74;791;-66
2022/05/20 07:51:30;;;;;;;;;;;27.20;41.10;;;;;;1582593;75;752;-66
2022/05/20 07:53:33;;;;;;;;;;;27.20;41.10;;;;;;1579129;74;748;-66
2022/05/20 07:55:35;;;;;;;;;;;27.20;41.00;;;;;;1577233;74;1680;-67
2022/05/20 07:57:37;;;;;;;;;;;27.20;41.00;;;;;;1581551;74;810;-67
2022/05/20 07:59:50;;;;;;;;;;;27.20;41.10;;;;;;1580437;74;795;-67
2022/05/20 08:01:52;;;;;;;;;;;27.20;41.00;;;;;;1588668;74;1430;-67
2022/05/20 08:06:15;;;;;;;;;;;27.30;41.00;;;;;;1562975;74;1667;-65
2022/05/20 08:08:17;;;;;;;;;;;27.30;41.00;;;;;;1580975;74;1927;-66
2022/05/20 08:10:21;;;;;;;;;;;27.20;41.00;;;;;;1577699;74;1756;-66
2022/05/20 08:12:23;;;;;;;;;;;27.20;41.00;;;;;;1576244;74;785;-66
2022/05/20 08:14:26;;;;;;;;;;;27.20;41.00;;;;;;1574490;74;1154;-66
2022/05/20 08:16:28;;;;;;;;;;;27.30;41.00;;;;;;1573409;74;725;-67
2022/05/20 08:18:30;;;;;;;;;;;27.20;41.00;;;;;;1579830;74;752;-66
2022/05/20 08:20:32;;;;;;;;;;;27.20;41.00;;;;;;1581458;74;603;-66
2022/05/20 08:22:34;;;;;;;;;;;27.20;41.00;;;;;;1581702;74;1437;-67
2022/05/20 08:24:38;;;;;;;;;;;27.30;41.00;;;;;;1573245;75;1144;-67
2022/05/20 08:26:40;;;;;;;;;;;27.20;41.30;;;;;;1571286;74;714;-65
2022/05/20 08:28:42;;;;;;;;;;;27.30;41.00;;;;;;1583862;74;1938;-66
2022/05/20 08:30:44;;;;;;;;;;;27.30;41.00;;;;;;1581368;74;805;-67
2022/05/20 08:32:46;;;;;;;;;;;27.30;40.90;;;;;;1582352;74;806;-67
2022/05/20 08:34:48;;;;;;;;;;;27.30;40.90;;;;;;1581452;74;1149;-66
2022/05/20 08:36:50;;;;;;;;;;;27.30;40.70;;;;;;1579148;74;1556;-66
2022/05/20 08:38:52;;;;;;;;;;;27.30;40.80;;;;;;1578882;74;738;-66
2022/05/20 08:40:54;;;;;;;;;;;27.30;40.80;;;;;;1578867;73;743;-67
2022/05/20 08:42:56;;;;;;;;;;;27.40;40.70;;;;;;1584021;74;776;-68
2022/05/20 08:44:58;;;;;;;;;;;27.30;40.70;;;;;;1583203;73;1130;-67
2022/05/20 08:47:17;;;;;;;;;;;27.30;40.70;;;;;;1585424;74;790;-68
2022/05/20 08:49:21;;;;;;;;;;;27.30;40.70;;;;;;1525865;77;1100;-66
2022/05/20 08:51:23;;;;;;;;;;;27.30;40.70;;;;;;1546216;75;1606;-66
2022/05/20 08:53:26;;;;;;;;;;;27.30;40.80;;;;;;1592903;74;788;-67
2022/05/20 08:55:28;;;;;;;;;;;27.30;40.80;;;;;;1587115;74;1122;-66
2022/05/20 08:57:33;;;;;;;;;;;27.30;40.90;;;;;;1570971;74;678;-66
2022/05/20 08:59:34;;;;;;;;;;;27.20;40.90;;;;;;1564324;74;1660;-67
2022/05/20 09:01:38;;;;;;;;;;;27.30;40.90;;;;;;1567557;75;832;-66
2022/05/20 09:03:39;;;;;;;;;;;27.30;41.00;;;;;;1577738;74;769;-64
2022/05/20 09:05:42;;;;;;;;;;;27.30;40.90;;;;;;1575228;74;1580;-68
2022/05/20 09:07:54;;;;;;;;;;;27.20;41.00;;;;;;1584666;73;1913;-67
2022/05/20 09:09:57;;;;;;;;;;;27.30;41.00;;;;;;1583125;74;785;-66
2022/05/20 09:11:58;;;;;;;;;;;27.30;41.00;;;;;;1584722;74;809;-65
2022/05/20 09:16:35;;;;;;;;;;;27.30;41.00;;;;;;1574401;74;1687;-65
2022/05/20 09:18:40;;;;;;;;;;;27.20;41.00;;;;;;1578376;74;729;-65
2022/05/20 09:20:44;;;;;;;;;;;27.30;41.00;;;;;;1579541;74;833;-64
2022/05/20 09:22:57;;;;;;;;;;;27.30;41.00;;;;;;1577784;74;793;-64
2022/05/20 09:24:59;;;;;;;;;;;27.30;41.00;;;;;;1580648;74;1153;-65
2022/05/20 09:27:03;;;;;;;;;;;27.30;41.00;;;;;;1584390;74;748;-65
2022/05/20 09:29:07;;;;;;;;;;;27.30;41.00;;;;;;1580957;74;1914;-64
2022/05/20 09:31:13;;;;;;;;;;;27.30;41.00;;;;;;1572906;74;852;-66
2022/05/20 09:33:17;;;;;;;;;;;27.40;41.00;;;;;;1582868;74;1518;-64
2022/05/20 09:35:20;;;;;;;;;;;27.40;41.00;;;;;;1595941;74;1870;-69
2022/05/20 09:37:23;;;;;;;;;;;27.40;41.00;;;;;;1583056;74;740;-65
2022/05/20 09:39:29;;;;;;;;;;;27.30;41.00;;;;;;1586164;74;813;-65
2022/05/20 09:41:31;;;;;;;;;;;27.40;41.00;;;;;;1578242;74;717;-65
2022/05/20 09:43:34;;;;;;;;;;;27.40;41.00;;;;;;1594547;74;710;-65
2022/05/20 09:45:37;;;;;;;;;;;27.40;41.00;;;;;;1575983;74;1946;-65
2022/05/20 09:47:40;;;;;;;;;;;27.40;41.00;;;;;;1562019;76;1915;-64
2022/05/20 09:49:43;;;;;;;;;;;27.40;41.00;;;;;;1580526;74;742;-65
2022/05/20 09:51:57;;;;;;;;;;;27.30;41.10;;;;;;1594732;73;827;-65
2022/05/20 09:54:07;;;;;;;;;;;27.30;41.30;;;;;;1585197;74;881;-65
2022/05/20 09:56:19;;;;;;;;;;;27.30;41.40;;;;;;1582272;74;2123;-65
2022/05/20 09:58:27;;;;;;;;;;;27.20;41.50;;;;;;1586210;74;755;-65
2022/05/20 10:00:26;;;;;;;;;;;27.20;41.60;;;;;;1588575;74;1620;-65
2022/05/20 10:02:48;;;;;;;;;;;27.20;41.60;;;;;;1543982;75;1629;-65
2022/05/20 10:04:54;;;;;;;;;;;27.20;41.70;;;;;;1582506;74;1137;-65
2022/05/20 10:06:56;;;;;;;;;;;27.10;41.80;;;;;;1589686;73;1716;-65
2022/05/20 10:09:06;;;;;;;;;;;27.10;41.80;;;;;;1572413;74;1936;-65
2022/05/20 10:11:18;;;;;;;;;;;27.20;41.80;;;;;;1585964;74;739;-65
2022/05/20 10:13:24;;;;;;;;;;;27.20;41.80;;;;;;1565853;74;720;-65
2022/05/20 10:15:31;;;;;;;;;;;27.10;41.90;;;;;;1585094;74;1948;-64
2022/05/20 10:17:37;;;;;;;;;;;27.10;41.90;;;;;;1590038;74;959;-65
2022/05/20 10:19:50;;;;;;;;;;;27.10;42.00;;;;;;1578361;74;796;-66
2022/05/20 10:21:52;;;;;;;;;;;27.10;42.00;;;;;;1574604;74;1662;-65
2022/05/20 10:23:55;;;;;;;;;;;27.10;42.00;;;;;;1563440;74;1670;-65
2022/05/20 10:26:14;;;;;;;;;;;27.10;42.10;;;;;;1576921;74;1113;-65
2022/05/20 10:33:16;;;;;;;;;;;27.10;42.10;;;;;;1591358;74;1619;-65
2022/05/20 10:35:19;;;;;;;;;;;27.10;42.20;;;;;;1593102;74;1139;-65
2022/05/20 10:37:23;;;;;;;;;;;27.00;42.20;;;;;;1582387;74;733;-65
2022/05/20 10:39:33;;;;;;;;;;;27.10;42.30;;;;;;1572763;74;792;-62
2022/05/20 10:41:45;;;;;;;;;;;27.00;42.40;;;;;;1536035;74;965;-64
2022/05/20 10:48:48;;;;;;;;;;;27.00;42.50;;;;;;1565301;74;1910;-68
2022/05/20 10:50:51;;;;;;;;;;;27.00;43.00;;;;;;1589066;73;1235;-59
2022/05/20 10:53:12;;;;;;;;;;;27.00;42.60;;;;;;1567927;75;1956;-59
2022/05/20 10:55:16;;;;;;;;;;;27.00;42.70;;;;;;1570011;75;901;-59
2022/05/20 10:57:36;;;;;;;;;;;27.00;42.70;;;;;;1574907;75;1584;-59
2022/05/20 10:59:51;;;;;;;;;;;27.00;42.70;;;;;;1570111;75;795;-58
2022/05/20 11:02:10;;;;;;;;;;;27.00;42.60;;;;;;1566894;75;1041;-55
2022/05/20 11:04:30;;;;;;;;;;;27.00;42.60;;;;;;1569947;75;1553;-59
2022/05/20 11:06:34;;;;;;;;;;;27.00;42.60;;;;;;1567109;75;843;-58
2022/05/20 11:08:43;;;;;;;;;;;27.00;42.60;;;;;;1569515;75;1914;-59
2022/05/20 11:10:59;;;;;;;;;;;27.00;42.60;;;;;;1576924;75;1793;-59
2022/05/20 11:13:19;;;;;;;;;;;27.00;42.60;;;;;;1573438;75;1633;-56
2022/05/20 11:15:22;;;;;;;;;;;26.90;41.90;;;;;;1576646;75;794;-56
2022/05/20 11:17:38;;;;;;;;;;;26.90;41.80;;;;;;1567846;75;710;-59
2022/05/20 11:19:44;;;;;;;;;;;26.90;41.70;;;;;;1571255;75;714;-57
2022/05/20 11:21:51;;;;;;;;;;;26.90;41.80;;;;;;1571907;75;1954;-57
2022/05/20 11:24:01;;;;;;;;;;;26.90;41.80;;;;;;1569813;75;2007;-59
2022/05/20 11:26:13;;;;;;;;;;;26.90;41.80;;;;;;1568420;75;1475;-58
2022/05/20 11:28:33;;;;;;;;;;;26.90;41.80;;;;;;1582456;75;1915;-59
2022/05/20 11:30:36;;;;;;;;;;;26.90;41.70;;;;;;1582685;75;1227;-58
2022/05/20 11:32:42;;;;;;;;;;;26.90;41.70;;;;;;1570706;75;2349;-57
2022/05/20 11:34:52;;;;;;;;;;;26.80;41.50;;;;;;1578872;75;1116;-58
2022/05/20 11:37:04;;;;;;;;;;;26.90;41.50;;;;;;1567117;75;1608;-59
2022/05/20 11:39:26;;;;;;;;;;;26.80;41.40;;;;;;1577858;75;2224;-59
2022/05/20 11:41:33;;;;;;;;;;;26.80;41.30;;;;;;1577230;75;1150;-59
2022/05/20 11:43:36;;;;;;;;;;;26.70;41.30;;;;;;1573288;75;730;-55
2022/05/20 11:45:46;;;;;;;;;;;26.80;41.20;;;;;;1568033;75;775;-59
2022/05/20 11:47:49;;;;;;;;;;;26.70;41.30;;;;;;1580726;75;795;-58
2022/05/20 11:49:59;;;;;;;;;;;26.70;41.00;;;;;;1565738;75;1918;-55
2022/05/20 11:52:18;;;;;;;;;;;26.80;41.00;;;;;;1571323;75;1431;-59
2022/05/20 11:54:39;;;;;;;;;;;26.70;41.00;;;;;;1574003;75;2086;-59
2022/05/20 11:57:00;;;;;;;;;;;26.70;40.90;;;;;;1573913;75;814;-59
2022/05/20 11:59:07;;;;;;;;;;;26.70;40.80;;;;;;1584142;75;736;-59
2022/05/20 12:01:09;;;;;;;;;;;26.70;40.80;;;;;;1572353;75;1154;-58
2022/05/20 12:03:15;;;;;;;;;;;26.70;40.80;;;;;;1569992;75;645;-58
2022/05/20 12:05:18;;;;;;;;;;;26.70;40.50;;;;;;1568054;75;1544;-58
2022/05/20 12:07:24;;;;;;;;;;;26.70;40.50;;;;;;1577013;75;787;-59
2022/05/20 12:09:31;;;;;;;;;;;26.70;40.50;;;;;;1575423;75;1920;-58
2022/05/20 12:11:38;;;;;;;;;;;26.70;40.40;;;;;;1578007;75;1185;-57
2022/05/20 12:13:58;;;;;;;;;;;26.70;40.30;;;;;;1571679;75;1672;-54
2022/05/20 12:16:10;;;;;;;;;;;26.70;40.30;;;;;;1566392;75;758;-57
2022/05/20 12:25:28;;;;;;;;;;;26.60;40.30;;;;;;1557479;75;1654;-59
2022/05/20 12:27:37;;;;;;;;;;;26.60;40.30;;;;;;1498985;77;1166;-57
2022/05/20 12:29:43;;;;;;;;;;;26.60;40.20;;;;;;1565011;75;1944;-59
2022/05/20 12:31:45;;;;;;;;;;;26.60;40.10;;;;;;1581184;75;1702;-57
2022/05/20 12:33:54;;;;;;;;;;;26.60;40.10;;;;;;1570497;75;1223;-57
2022/05/20 12:36:14;;;;;;;;;;;26.60;40.00;;;;;;1578428;75;1494;-58
2022/05/20 12:38:18;;;;;;;;;;;26.60;40.10;;;;;;1584984;75;795;-59
2022/05/20 12:40:30;;;;;;;;;;;26.60;40.10;;;;;;1580516;75;2325;-59
2022/05/20 12:42:43;;;;;;;;;;;26.60;40.00;;;;;;1583123;75;772;-57
2022/05/20 12:44:45;;;;;;;;;;;26.60;39.90;;;;;;1576293;75;1906;-58
2022/05/20 12:47:00;;;;;;;;;;;26.60;39.90;;;;;;1583177;75;729;-57
2022/05/20 12:49:02;;;;;;;;;;;26.50;39.80;;;;;;1580613;75;1932;-55
2022/05/20 12:51:06;;;;;;;;;;;26.50;39.80;;;;;;1582877;75;1705;-55
2022/05/20 12:53:08;;;;;;;;;;;26.60;39.70;;;;;;1580406;75;820;-57
2022/05/20 12:55:23;;;;;;;;;;;26.60;39.60;;;;;;1571999;75;865;-57
2022/05/20 12:57:26;;;;;;;;;;;26.60;39.50;;;;;;1578799;75;794;-58
2022/05/20 12:59:28;;;;;;;;;;;26.50;39.40;;;;;;1578145;75;763;-58